sensor_id;sensor_type;location;lat;lon;timestamp;pressure;altitude;pressure_sealevel;temperature;humidity
58739;BME280;44512;53.046;18.604;2023-02-04T00:04:14;101511.73;;;1.96;68.05
58739;BME280;44512;53.046;18.604;2023-02-04T00:14:42;101544.03;;;1.93;67.88
58739;BME280;44512;53.046;18.604;2023-02-04T00:25:10;101611.26;;;1.98;67.84
58739;BME280;44512;53.046;18.604;2023-02-04T00:35:39;101639.65;;;1.99;67.45
58739;BME280;44512;53.046;18.604;2023-02-04T00:46:07;101702.05;;;1.98;66.98
58739;BME280;44512;53.046;18.604;2023-02-04T00:56:35;101727.28;;;1.94;66.67
58739;BME280;44512;53.046;18.604;2023-02-04T01:07:04;101753.14;;;1.94;66.33
58739;BME280;44512;53.046;18.604;2023-02-04T01:17:32;101797.19;;;1.88;65.97
58739;BME280;44512;53.046;18.604;2023-02-04T01:28:01;101833.56;;;1.78;65.67
58739;BME280;44512;53.046;18.604;2023-02-04T01:38:29;101881.83;;;1.75;65.57
58739;BME280;44512;53.046;18.604;2023-02-04T01:48:57;101921.36;;;1.70;65.55
58739;BME280;44512;53.046;18.604;2023-02-04T01:59:26;101958.97;;;1.67;65.30
58739;BME280;44512;53.046;18.604;2023-02-04T02:09:54;101993.15;;;1.62;65.08
58739;BME280;44512;53.046;18.604;2023-02-04T02:20:24;102032.66;;;1.56;64.85
58739;BME280;44512;53.046;18.604;2023-02-04T02:30:52;102085.71;;;1.48;64.55
58739;BME280;44512;53.046;18.604;2023-02-04T02:41:20;102131.63;;;1.41;64.29
58739;BME280;44512;53.046;18.604;2023-02-04T02:51:48;102167.05;;;1.30;64.07
58739;BME280;44512;53.046;18.604;2023-02-04T03:02:19;102211.09;;;1.23;63.97
58739;BME280;44512;53.046;18.604;2023-02-04T03:12:46;102238.17;;;1.17;63.86
58739;BME280;44512;53.046;18.604;2023-02-04T03:23:13;102252.66;;;1.13;63.79
58739;BME280;44512;53.046;18.604;2023-02-04T03:33:42;102297.27;;;1.11;63.87
58739;BME280;44512;53.046;18.604;2023-02-04T03:44:10;102333.63;;;1.12;63.82
58739;BME280;44512;53.046;18.604;2023-02-04T03:54:39;102379.19;;;1.09;63.71
58739;BME280;44512;53.046;18.604;2023-02-04T04:05:08;102413.30;;;1.03;63.53
58739;BME280;44512;53.046;18.604;2023-02-04T04:15:35;102436.63;;;1.00;63.35
58739;BME280;44512;53.046;18.604;2023-02-04T04:26:04;102468.73;;;0.98;63.16
58739;BME280;44512;53.046;18.604;2023-02-04T04:36:32;102495.38;;;0.98;62.82
58739;BME280;44512;53.046;18.604;2023-02-04T04:47:00;102516.91;;;0.95;62.38
58739;BME280;44512;53.046;18.604;2023-02-04T04:57:29;102531.19;;;0.94;62.45
58739;BME280;44512;53.046;18.604;2023-02-04T05:07:57;102571.84;;;0.98;62.40
58739;BME280;44512;53.046;18.604;2023-02-04T05:18:26;102621.05;;;0.92;62.28
58739;BME280;44512;53.046;18.604;2023-02-04T05:28:54;102667.71;;;0.85;62.13
58739;BME280;44512;53.046;18.604;2023-02-04T05:39:22;102669.42;;;0.86;62.03
58739;BME280;44512;53.046;18.604;2023-02-04T05:49:51;102701.24;;;0.89;62.12
58739;BME280;44512;53.046;18.604;2023-02-04T06:00:20;102726.95;;;0.90;62.34
58739;BME280;44512;53.046;18.604;2023-02-04T06:10:48;102727.65;;;0.94;62.61
58739;BME280;44512;53.046;18.604;2023-02-04T06:21:17;102732.77;;;0.97;62.77
58739;BME280;44512;53.046;18.604;2023-02-04T06:31:45;102753.86;;;1.01;62.87
58739;BME280;44512;53.046;18.604;2023-02-04T06:42:13;102769.75;;;1.03;62.91
58739;BME280;44512;53.046;18.604;2023-02-04T06:52:41;102790.08;;;1.06;63.00
58739;BME280;44512;53.046;18.604;2023-02-04T07:03:10;102830.84;;;1.08;63.08
58739;BME280;44512;53.046;18.604;2023-02-04T07:13:38;102851.41;;;1.06;63.28
58739;BME280;44512;53.046;18.604;2023-02-04T07:24:07;102860.27;;;1.06;63.42
58739;BME280;44512;53.046;18.604;2023-02-04T07:34:35;102880.05;;;1.02;63.71
58739;BME280;44512;53.046;18.604;2023-02-04T07:45:04;102893.48;;;1.00;64.05
58739;BME280;44512;53.046;18.604;2023-02-04T07:55:31;102898.80;;;1.00;64.30
58739;BME280;44512;53.046;18.604;2023-02-04T08:06:00;102919.10;;;1.03;64.76
58739;BME280;44512;53.046;18.604;2023-02-04T08:16:28;102949.76;;;1.12;64.71
58739;BME280;44512;53.046;18.604;2023-02-04T08:26:57;102962.66;;;1.03;64.97
58739;BME280;44512;53.046;18.604;2023-02-04T08:37:25;102962.98;;;0.97;65.54
58739;BME280;44512;53.046;18.604;2023-02-04T08:47:54;102970.05;;;0.98;66.04
58739;BME280;44512;53.046;18.604;2023-02-04T08:58:22;102986.39;;;1.08;66.24
58739;BME280;44512;53.046;18.604;2023-02-04T09:08:50;103013.61;;;1.15;66.04
58739;BME280;44512;53.046;18.604;2023-02-04T09:19:19;103032.72;;;1.23;65.72
58739;BME280;44512;53.046;18.604;2023-02-04T09:34:54;103050.52;;;1.22;65.46
58739;BME280;44512;53.046;18.604;2023-02-04T09:45:25;103068.02;;;1.28;65.38
58739;BME280;44512;53.046;18.604;2023-02-04T09:55:51;103074.76;;;1.35;65.08
58739;BME280;44512;53.046;18.604;2023-02-04T10:06:20;103068.47;;;1.36;65.01
58739;BME280;44512;53.046;18.604;2023-02-04T10:16:55;103083.19;;;1.43;65.16
58739;BME280;44512;53.046;18.604;2023-02-04T10:27:16;103079.26;;;1.50;65.21
58739;BME280;44512;53.046;18.604;2023-02-04T10:37:45;103079.87;;;1.55;65.37
58739;BME280;44512;53.046;18.604;2023-02-04T10:48:17;103092.08;;;1.60;65.31
58739;BME280;44512;53.046;18.604;2023-02-04T10:58:41;103102.60;;;1.63;65.33
58739;BME280;44512;53.046;18.604;2023-02-04T11:09:13;103094.25;;;1.69;65.48
58739;BME280;44512;53.046;18.604;2023-02-04T11:19:38;103103.92;;;1.71;65.22
58739;BME280;44512;53.046;18.604;2023-02-04T11:40:37;103113.20;;;1.80;65.34
58739;BME280;44512;53.046;18.604;2023-02-04T11:51:17;103122.77;;;1.84;65.09
58739;BME280;44512;53.046;18.604;2023-02-04T12:01:33;103138.39;;;1.92;65.49
58739;BME280;44512;53.046;18.604;2023-02-04T12:12:03;103136.33;;;1.97;65.38
58739;BME280;44512;53.046;18.604;2023-02-04T12:22:28;103135.98;;;2.03;65.43
58739;BME280;44512;53.046;18.604;2023-02-04T12:32:57;103152.52;;;2.09;65.40
58739;BME280;44512;53.046;18.604;2023-02-04T12:43:25;103164.24;;;2.07;65.24
58739;BME280;44512;53.046;18.604;2023-02-04T12:53:54;103157.95;;;2.08;65.07
58739;BME280;44512;53.046;18.604;2023-02-04T13:04:22;103178.47;;;2.07;64.76
58739;BME280;44512;53.046;18.604;2023-02-04T13:14:50;103197.33;;;2.04;64.81
58739;BME280;44512;53.046;18.604;2023-02-04T13:25:19;103218.69;;;2.04;64.56
58739;BME280;44512;53.046;18.604;2023-02-04T13:35:47;103236.29;;;2.08;64.29
58739;BME280;44512;53.046;18.604;2023-02-04T13:46:16;103245.07;;;2.11;63.85
58739;BME280;44512;53.046;18.604;2023-02-04T13:56:44;103250.26;;;2.14;63.23
58739;BME280;44512;53.046;18.604;2023-02-04T14:07:14;103245.88;;;2.13;62.69
58739;BME280;44512;53.046;18.604;2023-02-04T14:17:41;103259.39;;;2.09;62.25
58739;BME280;44512;53.046;18.604;2023-02-04T14:28:09;103272.12;;;2.04;62.20
58739;BME280;44512;53.046;18.604;2023-02-04T14:38:37;103275.91;;;2.00;62.24
58739;BME280;44512;53.046;18.604;2023-02-04T14:49:06;103286.44;;;2.03;62.40
58739;BME280;44512;53.046;18.604;2023-02-04T14:59:34;103298.98;;;2.01;62.41
58739;BME280;44512;53.046;18.604;2023-02-04T15:10:04;103322.41;;;1.96;62.19
58739;BME280;44512;53.046;18.604;2023-02-04T15:20:31;103324.79;;;1.85;61.70
58739;BME280;44512;53.046;18.604;2023-02-04T15:30:59;103334.40;;;1.72;61.63
58739;BME280;44512;53.046;18.604;2023-02-04T15:41:28;103343.42;;;1.69;61.82
58739;BME280;44512;53.046;18.604;2023-02-04T15:51:56;103355.04;;;1.68;62.36
58739;BME280;44512;53.046;18.604;2023-02-04T16:02:25;103368.25;;;1.71;62.58
58739;BME280;44512;53.046;18.604;2023-02-04T16:12:54;103390.53;;;1.70;62.98
58739;BME280;44512;53.046;18.604;2023-02-04T16:23:22;103390.21;;;1.59;62.71
58739;BME280;44512;53.046;18.604;2023-02-04T16:33:50;103411.57;;;1.59;62.42
58739;BME280;44512;53.046;18.604;2023-02-04T16:44:18;103417.36;;;1.50;62.15
58739;BME280;44512;53.046;18.604;2023-02-04T16:54:47;103419.66;;;1.40;61.98
58739;BME280;44512;53.046;18.604;2023-02-04T17:05:15;103427.15;;;1.32;62.12
58739;BME280;44512;53.046;18.604;2023-02-04T17:15:44;103422.53;;;1.36;62.40
58739;BME280;44512;53.046;18.604;2023-02-04T17:26:12;103423.39;;;1.36;62.67
58739;BME280;44512;53.046;18.604;2023-02-04T17:36:41;103417.25;;;1.34;62.69
58739;BME280;44512;53.046;18.604;2023-02-04T17:47:09;103415.39;;;1.36;62.61
58739;BME280;44512;53.046;18.604;2023-02-04T17:57:37;103431.07;;;1.25;62.86
58739;BME280;44512;53.046;18.604;2023-02-04T18:18:37;103444.18;;;1.29;62.83
58739;BME280;44512;53.046;18.604;2023-02-04T18:39:32;103458.81;;;1.21;65.11
58739;BME280;44512;53.046;18.604;2023-02-04T18:50:01;103453.70;;;1.16;65.27
58739;BME280;44512;53.046;18.604;2023-02-04T19:00:28;103462.85;;;1.11;65.30
58739;BME280;44512;53.046;18.604;2023-02-04T19:10:57;103472.75;;;1.09;65.54
58739;BME280;44512;53.046;18.604;2023-02-04T19:21:28;103488.88;;;1.06;65.72
58739;BME280;44512;53.046;18.604;2023-02-04T19:32:07;103492.49;;;1.04;65.87
58739;BME280;44512;53.046;18.604;2023-02-04T19:42:30;103515.64;;;1.04;65.86
58739;BME280;44512;53.046;18.604;2023-02-04T19:52:54;103529.97;;;1.01;65.95
58739;BME280;44512;53.046;18.604;2023-02-04T20:13:47;103536.03;;;1.05;65.97
58739;BME280;44512;53.046;18.604;2023-02-04T20:24:17;103545.64;;;1.09;66.03
58739;BME280;44512;53.046;18.604;2023-02-04T20:34:44;103550.73;;;1.14;65.93
58739;BME280;44512;53.046;18.604;2023-02-04T20:55:45;103598.63;;;1.17;65.72
58739;BME280;44512;53.046;18.604;2023-02-04T21:16:38;103625.59;;;1.11;65.07
58739;BME280;44512;53.046;18.604;2023-02-04T21:27:06;103636.37;;;1.08;64.71
58739;BME280;44512;53.046;18.604;2023-02-04T21:37:35;103652.82;;;0.98;64.11
58739;BME280;44512;53.046;18.604;2023-02-04T21:48:04;103663.72;;;0.92;63.74
58739;BME280;44512;53.046;18.604;2023-02-04T21:58:31;103690.39;;;0.92;63.25
58739;BME280;44512;53.046;18.604;2023-02-04T22:09:00;103718.14;;;0.88;62.64
58739;BME280;44512;53.046;18.604;2023-02-04T22:19:28;103722.91;;;0.80;62.24
58739;BME280;44512;53.046;18.604;2023-02-04T22:29:56;103728.52;;;0.74;61.86
58739;BME280;44512;53.046;18.604;2023-02-04T22:40:25;103733.24;;;0.67;61.62
58739;BME280;44512;53.046;18.604;2023-02-04T22:50:53;103739.80;;;0.59;61.25
58739;BME280;44512;53.046;18.604;2023-02-04T23:01:22;103736.55;;;0.50;60.93
58739;BME280;44512;53.046;18.604;2023-02-04T23:11:50;103755.34;;;0.47;60.30
58739;BME280;44512;53.046;18.604;2023-02-04T23:22:19;103747.72;;;0.38;59.89
58739;BME280;44512;53.046;18.604;2023-02-04T23:32:47;103741.11;;;0.25;59.49
58739;BME280;44512;53.046;18.604;2023-02-04T23:43:15;103739.87;;;0.12;59.16
58739;BME280;44512;53.046;18.604;2023-02-04T23:53:44;103735.23;;;-0.07;59.04
